Time;durP1;ratioP1;P1;durP2;ratioP2;P2;SDS_P1;SDS_P2;PMS_P1;PMS_P2;Temp;Humidity;BMP_temperature;BMP_pressure;BME280_temperature;BME280_humidity;BME280_pressure;Samples;Min_cycle;Max_cycle;Signal;HPM_P1;HPM_P2
2022/03/18 00:02:04;;;;;;;13.32;5.45;;;1.80;99.90;;;;;;5091645;28;20055;-66
2022/03/18 00:04:30;;;;;;;13.25;5.97;;;1.80;99.90;;;;;;5089496;28;20031;-66
2022/03/18 00:06:56;;;;;;;11.90;5.78;;;1.80;99.90;;;;;;5093541;28;20028;-66
2022/03/18 00:09:22;;;;;;;15.45;6.38;;;1.70;99.90;;;;;;5093625;28;20056;-66
2022/03/18 00:11:48;;;;;;;15.02;5.72;;;1.70;99.90;;;;;;5089220;28;20055;-66
2022/03/18 00:14:14;;;;;;;13.98;6.03;;;1.70;99.90;;;;;;5090499;28;20079;-67
2022/03/18 00:16:40;;;;;;;12.73;5.80;;;1.70;99.90;;;;;;5091352;28;20031;-65
2022/03/18 00:19:06;;;;;;;17.40;6.60;;;1.70;99.90;;;;;;5091557;28;20074;-66
2022/03/18 00:21:34;;;;;;;14.68;6.15;;;1.80;99.90;;;;;;5090688;28;20063;-65
2022/03/18 00:24:00;;;;;;;15.23;6.40;;;1.90;99.90;;;;;;5088557;28;20197;-66
2022/03/18 00:26:26;;;;;;;18.60;6.50;;;1.80;99.90;;;;;;5094958;28;20067;-66
2022/03/18 00:28:52;;;;;;;14.38;6.13;;;1.80;99.90;;;;;;5092224;28;21915;-66
2022/03/18 00:31:18;;;;;;;14.25;6.10;;;1.80;99.90;;;;;;5094277;28;20873;-66
2022/03/18 00:33:43;;;;;;;17.40;6.43;;;1.80;99.90;;;;;;5075941;28;20031;-66
2022/03/18 00:36:09;;;;;;;15.02;6.30;;;1.70;99.90;;;;;;5091789;28;20076;-66
2022/03/18 00:38:35;;;;;;;12.75;6.22;;;1.80;99.90;;;;;;5093844;28;20080;-65
2022/03/18 00:41:01;;;;;;;16.65;6.85;;;1.70;99.90;;;;;;5089747;28;20397;-63
2022/03/18 00:43:27;;;;;;;14.57;6.18;;;1.70;99.90;;;;;;5094971;28;20024;-64
2022/03/18 00:45:52;;;;;;;19.67;6.78;;;1.70;99.90;;;;;;5094609;28;20081;-64
2022/03/18 00:53:46;;;;;;;16.33;6.88;;;1.70;99.90;;;;;;5094019;28;20089;-64
2022/03/18 00:56:12;;;;;;;17.60;6.32;;;1.60;99.90;;;;;;5094406;28;20107;-65
2022/03/18 00:58:38;;;;;;;16.63;7.50;;;1.60;99.90;;;;;;5091477;28;20017;-65
2022/03/18 01:01:04;;;;;;;18.73;7.43;;;1.50;99.90;;;;;;5091968;28;20074;-65
2022/03/18 01:03:30;;;;;;;15.15;6.50;;;1.60;99.90;;;;;;5093034;28;20032;-65
2022/03/18 01:05:55;;;;;;;16.17;7.00;;;1.60;99.90;;;;;;5092147;28;20064;-65
2022/03/18 01:08:21;;;;;;;16.08;6.25;;;1.60;99.90;;;;;;5089385;28;20056;-65
2022/03/18 01:10:47;;;;;;;15.52;7.40;;;1.50;99.90;;;;;;5094881;28;20079;-65
2022/03/18 01:13:12;;;;;;;14.13;7.57;;;1.60;99.90;;;;;;5092678;28;20020;-65
2022/03/18 01:15:38;;;;;;;19.63;7.80;;;1.60;99.90;;;;;;5087766;28;20461;-65
2022/03/18 01:18:04;;;;;;;16.20;6.95;;;1.50;99.90;;;;;;5091475;28;20025;-64
2022/03/18 01:20:30;;;;;;;15.88;7.38;;;1.50;99.90;;;;;;5096727;28;20030;-65
2022/03/18 01:22:55;;;;;;;16.80;6.97;;;1.50;99.90;;;;;;5088449;28;20028;-65
2022/03/18 01:25:21;;;;;;;19.98;7.50;;;1.50;99.90;;;;;;5089408;28;20308;-65
2022/03/18 01:27:47;;;;;;;19.55;8.13;;;1.60;99.90;;;;;;5107049;28;20080;-65
2022/03/18 01:30:16;;;;;;;21.23;8.23;;;1.60;99.90;;;;;;5091981;28;20044;-65
2022/03/18 01:32:42;;;;;;;22.02;8.05;;;1.60;99.90;;;;;;5089530;28;20020;-66
2022/03/18 01:35:09;;;;;;;22.70;8.02;;;1.60;99.90;;;;;;5093771;28;20031;-66
2022/03/18 01:37:35;;;;;;;16.77;8.02;;;1.60;99.90;;;;;;5087187;28;20056;-65
2022/03/18 01:40:00;;;;;;;18.02;7.28;;;1.60;99.90;;;;;;5089339;28;20353;-65
2022/03/18 01:42:26;;;;;;;19.27;8.70;;;1.70;99.90;;;;;;5092187;28;20032;-65
2022/03/18 01:44:51;;;;;;;20.38;8.23;;;1.80;99.90;;;;;;5089876;28;20029;-66
2022/03/18 01:47:18;;;;;;;17.88;7.72;;;1.80;99.90;;;;;;5110182;28;20505;-65
2022/03/18 01:49:46;;;;;;;15.77;7.43;;;1.70;99.90;;;;;;5088669;28;20062;-65
2022/03/18 01:52:12;;;;;;;18.00;7.22;;;1.80;99.90;;;;;;5091455;28;20024;-66
2022/03/18 01:54:44;;;;;;;16.30;7.70;;;1.70;99.90;;;;;;5088497;28;20040;-65
2022/03/18 01:57:12;;;;;;;18.10;7.18;;;1.70;99.90;;;;;;5088017;28;20020;-65
2022/03/18 01:59:38;;;;;;;21.60;7.63;;;1.60;99.90;;;;;;5092264;28;20368;-65
2022/03/18 02:02:04;;;;;;;17.02;7.43;;;1.60;99.90;;;;;;5089553;28;20053;-65
2022/03/18 02:04:30;;;;;;;20.65;7.07;;;1.50;99.90;;;;;;5090076;28;20028;-65
2022/03/18 02:06:56;;;;;;;15.63;7.38;;;1.50;99.90;;;;;;5090424;28;20040;-65
2022/03/18 02:09:22;;;;;;;14.43;7.00;;;1.50;99.90;;;;;;5091402;28;20123;-66
2022/03/18 02:11:49;;;;;;;14.77;6.75;;;1.50;99.90;;;;;;5088152;28;20040;-65
2022/03/18 02:14:31;;;;;;;17.45;7.90;;;1.50;99.90;;;;;;5092363;28;20028;-66
2022/03/18 02:16:56;;;;;;;18.60;7.88;;;1.60;99.90;;;;;;5089733;28;20024;-65
2022/03/18 02:19:22;;;;;;;21.40;8.13;;;1.60;99.90;;;;;;5086950;28;20371;-66
2022/03/18 02:21:52;;;;;;;13.75;6.75;;;1.50;99.90;;;;;;5085705;28;20054;-65
2022/03/18 02:24:18;;;;;;;18.05;7.70;;;1.50;99.90;;;;;;5094906;28;20028;-65
2022/03/18 02:26:49;;;;;;;19.30;7.85;;;1.50;99.90;;;;;;5093052;28;20102;-66
2022/03/18 02:29:19;;;;;;;16.85;7.30;;;1.50;99.90;;;;;;5096281;28;20448;-65
2022/03/18 02:31:45;;;;;;;18.00;7.63;;;1.50;99.90;;;;;;5090077;28;20544;-65
2022/03/18 02:34:11;;;;;;;18.40;7.32;;;1.50;99.90;;;;;;5091776;28;20126;-66
2022/03/18 02:36:37;;;;;;;15.13;6.65;;;1.40;99.90;;;;;;5093196;28;20040;-66
2022/03/18 02:39:06;;;;;;;18.83;8.38;;;1.40;99.90;;;;;;5091811;28;20573;-65
2022/03/18 02:41:35;;;;;;;18.08;8.35;;;1.40;99.90;;;;;;5091124;28;20042;-65
2022/03/18 02:44:01;;;;;;;16.77;8.55;;;1.40;99.90;;;;;;5088799;28;20042;-65
2022/03/18 02:46:27;;;;;;;18.60;8.10;;;1.40;99.90;;;;;;5088306;28;20085;-65
2022/03/18 02:48:53;;;;;;;18.65;8.55;;;1.40;99.90;;;;;;5091732;28;20238;-65
2022/03/18 02:51:19;;;;;;;21.85;8.38;;;1.40;99.90;;;;;;5090591;28;20043;-64
2022/03/18 02:53:45;;;;;;;15.23;7.93;;;1.40;99.90;;;;;;5089293;28;20043;-64
2022/03/18 02:56:12;;;;;;;21.42;8.93;;;1.40;99.90;;;;;;5097722;28;20028;-64
2022/03/18 02:58:38;;;;;;;17.73;7.95;;;1.40;99.90;;;;;;5090641;28;20123;-64
2022/03/18 03:01:04;;;;;;;20.05;8.32;;;1.40;99.90;;;;;;5085555;28;20828;-65
2022/03/18 03:03:30;;;;;;;17.48;8.30;;;1.30;99.90;;;;;;5092611;28;20029;-64
2022/03/18 03:08:41;;;;;;;16.85;8.10;;;1.30;99.90;;;;;;5091773;28;20046;-64
2022/03/18 03:11:07;;;;;;;18.02;7.82;;;1.30;99.90;;;;;;5089249;28;20122;-64
2022/03/18 03:13:33;;;;;;;18.80;8.07;;;1.30;99.90;;;;;;5091501;28;20070;-64
2022/03/18 03:15:59;;;;;;;15.70;8.13;;;1.20;99.90;;;;;;5089956;28;20119;-64
2022/03/18 03:18:26;;;;;;;18.30;8.32;;;1.20;99.90;;;;;;5088224;28;20024;-64
2022/03/18 03:20:52;;;;;;;20.88;8.00;;;1.30;99.90;;;;;;5087124;28;20028;-64
2022/03/18 03:23:18;;;;;;;18.73;9.50;;;1.30;99.90;;;;;;5084727;28;20032;-65
2022/03/18 03:25:44;;;;;;;16.30;8.38;;;1.30;99.90;;;;;;5093113;28;20035;-65
2022/03/18 03:28:09;;;;;;;19.73;8.82;;;1.30;99.90;;;;;;5085891;28;20043;-65
2022/03/18 03:30:35;;;;;;;18.65;9.60;;;1.20;99.90;;;;;;5087848;28;20071;-64
2022/03/18 03:33:01;;;;;;;18.98;9.95;;;1.30;99.90;;;;;;5086622;28;20028;-65
2022/03/18 03:35:27;;;;;;;18.08;9.00;;;1.30;99.90;;;;;;5085968;28;20036;-64
2022/03/18 03:37:52;;;;;;;17.20;8.98;;;1.20;99.90;;;;;;5106189;28;20056;-64
2022/03/18 03:40:19;;;;;;;18.10;9.82;;;1.20;99.90;;;;;;5089654;28;20062;-64
2022/03/18 03:42:48;;;;;;;20.52;8.95;;;1.20;99.90;;;;;;5090633;28;20028;-64
2022/03/18 03:45:14;;;;;;;18.83;8.90;;;1.20;99.90;;;;;;5086276;28;20039;-64
2022/03/18 03:47:40;;;;;;;18.75;9.23;;;1.20;99.90;;;;;;5091462;28;20077;-64
2022/03/18 03:50:08;;;;;;;17.70;8.50;;;1.20;99.90;;;;;;5087230;28;20040;-65
2022/03/18 03:52:37;;;;;;;15.50;7.32;;;1.20;99.90;;;;;;5091587;28;20028;-64
2022/03/18 03:55:07;;;;;;;19.02;8.27;;;1.20;99.90;;;;;;5091366;28;20036;-64
2022/03/18 03:57:32;;;;;;;16.80;7.43;;;1.10;99.90;;;;;;5086658;28;20024;-65
2022/03/18 03:59:58;;;;;;;20.80;9.32;;;1.10;99.90;;;;;;5091712;28;20024;-64
2022/03/18 04:02:27;;;;;;;15.73;9.00;;;1.10;99.90;;;;;;5089887;28;20063;-64
2022/03/18 04:04:53;;;;;;;19.52;8.45;;;1.20;99.90;;;;;;5090266;28;20508;-64
2022/03/18 04:07:19;;;;;;;17.02;8.30;;;1.20;99.90;;;;;;5090579;28;20043;-64
2022/03/18 04:09:47;;;;;;;15.95;8.23;;;1.20;99.90;;;;;;5094678;28;20024;-64
2022/03/18 04:12:13;;;;;;;16.25;8.32;;;1.10;99.90;;;;;;5094063;28;20040;-65
2022/03/18 04:14:40;;;;;;;17.73;8.90;;;1.20;99.90;;;;;;5089941;28;20571;-65
2022/03/18 04:17:05;;;;;;;23.15;9.38;;;1.20;99.90;;;;;;5096058;28;20078;-65
2022/03/18 04:19:31;;;;;;;18.38;8.63;;;1.10;99.90;;;;;;5087893;28;20479;-64
2022/03/18 04:21:57;;;;;;;17.45;8.48;;;1.10;99.90;;;;;;5098624;28;20040;-64
2022/03/18 04:24:22;;;;;;;18.70;9.05;;;1.10;99.90;;;;;;5100716;28;20032;-64
2022/03/18 04:26:48;;;;;;;18.92;8.43;;;1.10;99.90;;;;;;5095658;28;20032;-64
2022/03/18 04:29:14;;;;;;;16.88;7.93;;;1.00;99.90;;;;;;5095661;28;20033;-64
2022/03/18 04:31:40;;;;;;;17.50;9.27;;;1.00;99.90;;;;;;5094524;28;20040;-65
2022/03/18 04:34:06;;;;;;;19.38;9.20;;;1.00;99.90;;;;;;5099460;28;20039;-65
2022/03/18 04:36:32;;;;;;;19.27;10.07;;;1.00;99.90;;;;;;5087933;28;20735;-64
2022/03/18 04:38:58;;;;;;;18.23;9.23;;;1.00;99.90;;;;;;5097103;28;20028;-65
2022/03/18 04:41:23;;;;;;;16.17;8.82;;;1.10;99.90;;;;;;5088403;28;20028;-65
2022/03/18 04:43:49;;;;;;;15.07;8.73;;;1.00;99.90;;;;;;5095019;28;20520;-65
2022/03/18 04:46:15;;;;;;;24.90;10.23;;;1.00;99.90;;;;;;5076237;28;20032;-64
2022/03/18 04:48:40;;;;;;;20.55;10.07;;;1.10;99.90;;;;;;5090960;28;20038;-64
2022/03/18 04:51:07;;;;;;;19.50;10.07;;;1.10;99.90;;;;;;5094344;28;20038;-64
2022/03/18 04:53:32;;;;;;;22.27;10.73;;;1.00;99.90;;;;;;5092309;28;20023;-64
2022/03/18 04:55:58;;;;;;;21.30;10.63;;;1.10;99.90;;;;;;5079904;28;20032;-65
2022/03/18 04:58:24;;;;;;;27.58;11.80;;;1.20;99.90;;;;;;5088902;28;20049;-65
2022/03/18 05:00:49;;;;;;;22.48;10.68;;;1.20;99.90;;;;;;5076765;28;21674;-64
2022/03/18 05:03:15;;;;;;;19.98;10.25;;;1.20;99.90;;;;;;5086012;28;20037;-64
2022/03/18 05:05:41;;;;;;;17.13;10.98;;;1.20;99.90;;;;;;5090853;28;20047;-65
2022/03/18 05:08:08;;;;;;;24.85;11.00;;;1.20;99.90;;;;;;5095522;28;20032;-65
2022/03/18 05:10:37;;;;;;;19.85;11.80;;;1.20;99.90;;;;;;5093701;28;20044;-66
2022/03/18 05:13:03;;;;;;;24.80;10.77;;;1.40;99.90;;;;;;5094685;28;20036;-65
2022/03/18 05:15:31;;;;;;;21.05;10.75;;;1.40;99.90;;;;;;5090538;28;20035;-66
2022/03/18 05:17:57;;;;;;;22.77;10.60;;;1.30;99.90;;;;;;5087909;28;20037;-65
2022/03/18 05:20:26;;;;;;;19.73;11.15;;;1.30;99.90;;;;;;5092447;28;20127;-66
2022/03/18 05:22:51;;;;;;;20.50;10.68;;;1.30;99.90;;;;;;5090636;28;20028;-66
2022/03/18 05:25:17;;;;;;;17.60;8.98;;;1.30;99.90;;;;;;5082131;28;20512;-65
2022/03/18 05:27:44;;;;;;;16.77;9.00;;;1.20;99.90;;;;;;5082727;28;20072;-65
2022/03/18 05:30:11;;;;;;;21.90;10.27;;;1.20;99.90;;;;;;5088856;28;20047;-66
2022/03/18 05:32:37;;;;;;;20.23;9.55;;;1.10;99.90;;;;;;5088696;28;20035;-65
2022/03/18 05:35:04;;;;;;;23.77;10.80;;;1.10;99.90;;;;;;5089716;28;20056;-65
2022/03/18 05:37:30;;;;;;;29.27;16.73;;;1.00;99.90;;;;;;5095077;28;20021;-65
2022/03/18 05:39:55;;;;;;;21.40;11.15;;;1.00;99.90;;;;;;5092743;28;20042;-65
2022/03/18 05:42:21;;;;;;;18.63;10.75;;;1.10;99.90;;;;;;5085840;28;20036;-65
2022/03/18 05:44:47;;;;;;;32.05;15.30;;;1.00;99.90;;;;;;5091978;28;20028;-65
2022/03/18 05:47:12;;;;;;;23.63;14.10;;;1.00;99.90;;;;;;5095264;28;20062;-65
2022/03/18 05:49:38;;;;;;;22.42;11.90;;;0.90;99.90;;;;;;5089411;28;20031;-65
2022/03/18 05:52:04;;;;;;;20.95;10.20;;;1.00;99.90;;;;;;5072170;28;20036;-65
2022/03/18 05:54:30;;;;;;;19.00;10.38;;;1.10;99.90;;;;;;5088328;28;20041;-66
2022/03/18 05:56:55;;;;;;;19.45;9.95;;;1.00;99.90;;;;;;5090406;28;20036;-66
2022/03/18 05:59:24;;;;;;;20.27;9.98;;;1.00;99.90;;;;;;5089963;28;20040;-66
2022/03/18 06:01:50;;;;;;;17.33;9.88;;;1.00;99.90;;;;;;5086631;28;20034;-65
2022/03/18 06:04:17;;;;;;;22.00;11.57;;;1.00;99.90;;;;;;5087331;28;20032;-65
2022/03/18 06:06:47;;;;;;;20.25;10.82;;;1.10;99.90;;;;;;5088005;28;20093;-66
2022/03/18 06:11:59;;;;;;;22.05;12.30;;;1.10;99.90;;;;;;5092853;28;20042;-66
2022/03/18 06:14:27;;;;;;;17.88;10.23;;;1.10;99.90;;;;;;5097988;28;20052;-65
2022/03/18 06:16:54;;;;;;;22.48;10.90;;;1.00;99.90;;;;;;5094425;28;20356;-66
2022/03/18 06:19:22;;;;;;;20.67;9.93;;;1.10;99.90;;;;;;5058354;28;1128055;-66
2022/03/18 06:21:48;;;;;;;23.10;11.10;;;1.10;99.90;;;;;;5085675;28;20070;-66
2022/03/18 06:24:14;;;;;;;20.67;10.68;;;1.10;99.90;;;;;;5095686;28;20036;-66
2022/03/18 06:26:43;;;;;;;20.60;11.05;;;1.20;99.90;;;;;;5091823;28;20031;-65
2022/03/18 06:29:09;;;;;;;15.98;10.20;;;1.20;99.90;;;;;;5093048;28;20091;-66
2022/03/18 06:31:35;;;;;;;22.90;11.57;;;1.20;99.90;;;;;;5096649;28;20046;-65
2022/03/18 06:34:02;;;;;;;22.60;13.93;;;1.30;99.90;;;;;;5090477;28;20021;-65
2022/03/18 06:36:30;;;;;;;24.10;13.57;;;1.30;99.90;;;;;;5095778;28;20125;-65
2022/03/18 06:38:56;;;;;;;23.10;13.65;;;1.40;99.90;;;;;;5093072;28;20109;-65
2022/03/18 06:41:22;;;;;;;20.67;13.52;;;1.70;99.90;;;;;;5094484;28;20140;-66
2022/03/18 06:43:49;;;;;;;24.42;14.15;;;1.80;99.90;;;;;;5095649;28;20057;-66
2022/03/18 06:46:15;;;;;;;24.17;15.05;;;1.90;99.90;;;;;;5093016;28;20036;-65
2022/03/18 06:48:42;;;;;;;28.65;15.43;;;2.10;99.90;;;;;;5087572;28;20033;-66
2022/03/18 06:51:08;;;;;;;31.77;15.02;;;2.30;99.90;;;;;;5091097;28;20100;-65
2022/03/18 06:53:34;;;;;;;25.25;13.50;;;2.60;99.90;;;;;;5088227;28;20075;-67
2022/03/18 06:56:00;;;;;;;24.90;13.43;;;2.60;99.90;;;;;;5075940;28;20094;-66
2022/03/18 06:58:27;;;;;;;23.75;14.40;;;2.60;99.90;;;;;;5089745;28;20040;-65
2022/03/18 07:00:56;;;;;;;27.45;15.50;;;2.70;99.90;;;;;;5095246;28;20063;-66
2022/03/18 07:03:22;;;;;;;32.58;17.00;;;2.80;99.90;;;;;;5087144;28;20123;-65
2022/03/18 07:05:47;;;;;;;28.00;17.08;;;2.90;99.90;;;;;;5097106;28;20032;-65
2022/03/18 07:08:16;;;;;;;29.17;17.00;;;3.00;99.90;;;;;;5092847;28;20028;-66
2022/03/18 07:10:43;;;;;;;30.00;17.60;;;3.10;99.90;;;;;;5090402;28;20027;-66
2022/03/18 07:13:08;;;;;;;32.83;18.35;;;3.20;99.90;;;;;;5096476;28;20028;-65
2022/03/18 07:15:36;;;;;;;37.05;19.00;;;3.30;99.90;;;;;;5092090;28;20073;-66
2022/03/18 07:18:04;;;;;;;33.17;19.77;;;3.40;99.90;;;;;;5089890;28;20024;-66
2022/03/18 07:20:34;;;;;;;34.60;19.70;;;3.60;99.90;;;;;;5085588;28;20074;-65
2022/03/18 07:23:08;;;;;;;36.33;21.35;;;3.60;99.90;;;;;;5088093;28;20039;-66
2022/03/18 07:25:35;;;;;;;36.05;20.52;;;3.80;99.90;;;;;;5095897;28;20089;-66
2022/03/18 07:28:01;;;;;;;37.17;20.77;;;3.90;99.90;;;;;;5106770;28;20139;-66
2022/03/18 07:30:27;;;;;;;36.90;20.95;;;4.00;99.90;;;;;;5091680;28;20449;-66
2022/03/18 07:32:53;;;;;;;33.35;21.42;;;4.10;99.90;;;;;;5094227;28;20094;-66
2022/03/18 07:35:19;;;;;;;39.85;21.73;;;4.20;99.90;;;;;;5088751;28;20037;-68
2022/03/18 07:37:45;;;;;;;35.88;22.48;;;4.30;99.90;;;;;;5087743;28;20031;-67
2022/03/18 07:40:15;;;;;;;36.53;21.02;;;4.40;99.90;;;;;;5074805;28;20103;-67
2022/03/18 07:42:48;;;;;;;36.45;21.15;;;4.60;99.90;;;;;;5077370;28;20599;-67
2022/03/18 07:45:20;;;;;;;35.40;21.50;;;4.70;99.90;;;;;;5096317;28;20036;-67
2022/03/18 07:47:49;;;;;;;33.22;22.42;;;4.80;99.90;;;;;;5084934;28;20495;-67
2022/03/18 07:50:20;;;;;;;35.00;22.45;;;5.00;99.90;;;;;;5092489;28;20100;-67
2022/03/18 07:52:50;;;;;;;36.90;22.13;;;5.20;99.90;;;;;;5090167;28;20012;-69
2022/03/18 07:55:27;;;;;;;34.28;21.02;;;6.00;99.90;;;;;;5075047;28;20056;-66
2022/03/18 07:57:54;;;;;;;26.77;17.65;;;7.50;99.90;;;;;;5088518;28;20069;-66
2022/03/18 08:00:20;;;;;;;27.90;17.08;;;9.00;99.90;;;;;;5091941;28;20025;-66
2022/03/18 08:02:48;;;;;;;26.23;17.35;;;10.20;99.90;;;;;;5090314;28;20114;-65
2022/03/18 08:05:14;;;;;;;24.35;14.82;;;11.30;99.90;;;;;;5089948;28;20158;-68
2022/03/18 08:07:41;;;;;;;25.42;15.82;;;11.90;99.90;;;;;;5095293;28;20043;-68
2022/03/18 08:10:09;;;;;;;21.60;14.25;;;12.90;99.90;;;;;;5084510;28;20054;-68
2022/03/18 08:12:36;;;;;;;21.80;14.38;;;13.40;99.90;;;;;;5097414;28;20020;-68
2022/03/18 08:15:09;;;;;;;23.02;14.10;;;14.00;99.90;;;;;;5090015;28;20020;-66
2022/03/18 08:17:34;;;;;;;24.10;14.15;;;14.70;99.90;;;;;;5092265;28;20522;-65
2022/03/18 08:20:00;;;;;;;19.45;12.38;;;15.00;99.90;;;;;;5086664;28;20032;-66
2022/03/18 08:22:26;;;;;;;21.27;12.73;;;15.60;95.50;;;;;;5069084;28;20043;-67
2022/03/18 08:24:52;;;;;;;18.33;12.18;;;15.60;91.60;;;;;;5096024;28;20099;-67
2022/03/18 08:27:19;;;;;;;21.08;12.07;;;16.00;90.20;;;;;;5099824;28;20051;-66
2022/03/18 08:29:49;;;;;;;20.92;12.60;;;16.10;82.40;;;;;;5087307;28;20104;-67
2022/03/18 08:32:16;;;;;;;19.13;12.07;;;16.50;81.80;;;;;;5098475;28;20040;-66
2022/03/18 08:34:42;;;;;;;20.80;11.98;;;16.80;79.30;;;;;;5102295;28;20051;-66
2022/03/18 08:37:10;;;;;;;18.27;10.57;;;17.00;76.20;;;;;;5100917;28;20027;-66
2022/03/18 08:39:41;;;;;;;20.17;12.27;;;17.40;79.00;;;;;;5100930;28;20062;-66
2022/03/18 08:42:07;;;;;;;22.45;12.23;;;16.70;83.10;;;;;;5084899;28;20032;-66
2022/03/18 08:44:33;;;;;;;19.08;10.68;;;17.70;80.40;;;;;;5080643;28;20025;-66
2022/03/18 08:46:59;;;;;;;22.58;11.55;;;18.10;71.00;;;;;;5084040;28;20035;-66
2022/03/18 08:49:26;;;;;;;21.20;11.32;;;18.20;74.40;;;;;;5087485;28;20040;-66
2022/03/18 08:51:52;;;;;;;22.83;11.15;;;17.90;69.30;;;;;;5085335;28;20056;-66
2022/03/18 08:54:21;;;;;;;18.13;10.20;;;17.60;68.40;;;;;;5083838;28;20040;-66
2022/03/18 08:56:48;;;;;;;21.58;11.15;;;17.40;72.00;;;;;;5100766;28;20024;-66
2022/03/18 08:59:13;;;;;;;21.50;10.75;;;17.80;75.80;;;;;;5104562;28;20035;-66
2022/03/18 09:01:39;;;;;;;19.27;10.70;;;18.30;73.60;;;;;;5086500;28;20021;-66
2022/03/18 09:04:05;;;;;;;20.27;11.43;;;18.70;71.50;;;;;;5085524;28;20525;-66
2022/03/18 09:06:31;;;;;;;21.60;11.27;;;18.70;63.30;;;;;;5083454;28;20025;-66
2022/03/18 09:09:03;;;;;;;19.95;12.27;;;18.90;61.40;;;;;;5083980;28;20103;-66
2022/03/18 09:11:29;;;;;;;21.52;11.77;;;19.50;60.40;;;;;;5091718;28;20490;-66
2022/03/18 09:13:55;;;;;;;22.80;11.20;;;20.00;59.30;;;;;;5099977;28;20085;-65
2022/03/18 09:16:21;;;;;;;19.13;10.45;;;20.30;59.00;;;;;;5084938;28;20423;-65
2022/03/18 09:18:46;;;;;;;19.77;10.98;;;20.50;55.70;;;;;;5103782;28;20047;-65
2022/03/18 09:21:13;;;;;;;19.48;11.32;;;20.10;58.00;;;;;;5087073;28;20050;-64
2022/03/18 09:23:39;;;;;;;20.83;10.95;;;20.10;55.60;;;;;;5101622;28;20074;-65
2022/03/18 09:26:04;;;;;;;19.13;11.05;;;20.30;58.50;;;;;;5102403;28;20028;-65
2022/03/18 09:28:31;;;;;;;20.83;11.43;;;18.90;59.10;;;;;;5086797;28;20021;-65
2022/03/18 09:30:57;;;;;;;19.70;10.32;;;18.30;70.70;;;;;;5083103;28;20132;-65
2022/03/18 09:33:22;;;;;;;21.70;10.75;;;17.10;80.80;;;;;;5089011;28;20032;-65
2022/03/18 09:35:48;;;;;;;20.02;10.52;;;16.50;93.80;;;;;;5082251;28;20214;-65
2022/03/18 09:38:14;;;;;;;20.27;11.43;;;16.20;99.40;;;;;;5101633;28;20091;-65
2022/03/18 09:40:41;;;;;;;17.30;11.68;;;15.50;99.90;;;;;;5102912;28;20081;-65
2022/03/18 09:43:08;;;;;;;21.20;11.10;;;15.50;99.90;;;;;;5102193;28;20052;-65
2022/03/18 09:45:38;;;;;;;20.60;10.82;;;15.10;99.90;;;;;;5091847;28;20020;-65
2022/03/18 09:48:07;;;;;;;19.77;10.55;;;15.30;99.90;;;;;;5088149;28;20069;-65
2022/03/18 09:50:34;;;;;;;20.25;9.95;;;15.10;99.90;;;;;;5083700;28;20478;-64
2022/03/18 09:53:03;;;;;;;18.73;9.30;;;15.30;99.90;;;;;;5084369;28;20025;-65
2022/03/18 09:55:30;;;;;;;23.35;10.43;;;15.20;99.90;;;;;;5084490;28;20378;-65
2022/03/18 09:57:56;;;;;;;22.70;10.93;;;15.80;99.90;;;;;;5097422;28;20024;-65
2022/03/18 10:00:22;;;;;;;22.33;10.63;;;16.90;98.60;;;;;;5102366;28;20058;-65
2022/03/18 10:03:12;;;;;;;20.80;10.82;;;18.70;97.70;;;;;;5098303;28;20029;-69
2022/03/18 10:06:05;;;;;;;22.67;10.23;;;19.40;80.10;;;;;;5088700;28;20024;-66
2022/03/18 10:08:39;;;;;;;22.58;9.98;;;20.10;65.90;;;;;;5088592;28;20379;-66
2022/03/18 10:11:20;;;;;;;20.23;9.85;;;20.10;65.80;;;;;;5088305;28;20115;-65
2022/03/18 10:13:52;;;;;;;20.27;9.57;;;20.40;61.70;;;;;;5094351;28;20055;-65
2022/03/18 10:16:33;;;;;;;15.95;9.18;;;21.00;58.00;;;;;;5086346;28;20409;-65
2022/03/18 10:19:00;;;;;;;18.60;9.10;;;21.20;55.10;;;;;;5084440;28;20048;-65
2022/03/18 10:21:28;;;;;;;20.80;9.15;;;21.80;56.90;;;;;;5093076;28;20286;-65
2022/03/18 10:24:04;;;;;;;17.50;8.50;;;21.70;52.20;;;;;;5094280;28;20013;-65
2022/03/18 10:26:33;;;;;;;19.48;9.25;;;22.50;53.50;;;;;;5091886;28;20032;-65
2022/03/18 10:29:00;;;;;;;19.50;9.75;;;22.70;51.90;;;;;;5091663;28;20040;-65
2022/03/18 10:31:26;;;;;;;19.20;9.05;;;21.30;50.30;;;;;;5086338;28;20032;-65
2022/03/18 10:37:05;;;;;;;18.85;9.05;;;22.70;50.90;;;;;;5086013;28;20048;-65
2022/03/18 10:39:43;;;;;;;19.75;8.95;;;23.10;50.70;;;;;;5094252;28;20036;-65
2022/03/18 10:42:11;;;;;;;17.50;8.95;;;23.20;49.30;;;;;;5092782;28;20023;-65
2022/03/18 10:44:46;;;;;;;17.70;8.40;;;23.90;47.80;;;;;;5090636;28;20399;-65
2022/03/18 10:47:30;;;;;;;17.48;8.10;;;24.20;47.30;;;;;;5091061;28;20028;-65
2022/03/18 10:50:13;;;;;;;17.08;7.43;;;24.30;45.70;;;;;;5089497;28;20055;-65
2022/03/18 10:52:47;;;;;;;16.02;7.70;;;25.20;43.70;;;;;;5087209;28;20028;-66
2022/03/18 10:55:25;;;;;;;15.30;8.55;;;24.70;44.90;;;;;;5091718;28;20038;-67
2022/03/18 10:58:01;;;;;;;15.48;7.95;;;24.90;44.50;;;;;;5088760;28;20107;-67
2022/03/18 11:00:30;;;;;;;13.57;6.75;;;25.40;43.50;;;;;;5108259;28;20028;-67
2022/03/18 11:02:58;;;;;;;14.88;5.60;;;26.50;43.20;;;;;;5087868;28;20055;-67
2022/03/18 11:05:35;;;;;;;11.65;5.15;;;27.40;41.80;;;;;;5090440;28;20029;-65
2022/03/18 11:08:02;;;;;;;12.32;5.80;;;28.20;41.00;;;;;;5089001;28;20020;-65
2022/03/18 11:13:15;;;;;;;14.10;7.30;;;27.90;38.90;;;;;;5087219;28;20413;-66
2022/03/18 11:15:45;;;;;;;14.00;7.25;;;27.70;38.30;;;;;;5086793;28;20398;-65
2022/03/18 11:18:12;;;;;;;14.45;7.40;;;27.40;38.60;;;;;;5084805;28;20053;-65
2022/03/18 11:20:43;;;;;;;16.08;6.78;;;27.70;38.40;;;;;;5092999;28;20056;-65
2022/03/18 11:23:20;;;;;;;16.85;7.30;;;28.20;40.20;;;;;;5087766;28;20020;-66
2022/03/18 11:25:49;;;;;;;15.20;7.63;;;29.00;39.10;;;;;;5089991;28;20025;-65
2022/03/18 11:28:17;;;;;;;20.42;8.30;;;28.50;37.90;;;;;;5088851;28;20497;-66
2022/03/18 11:30:44;;;;;;;17.42;8.00;;;28.00;36.50;;;;;;5081345;28;20137;-65
2022/03/18 11:33:09;;;;;;;15.13;7.40;;;27.80;36.20;;;;;;5092183;28;20040;-65
2022/03/18 11:35:50;;;;;;;14.38;7.47;;;27.40;38.20;;;;;;5090518;28;20027;-90
2022/03/18 11:38:23;;;;;;;15.00;7.68;;;26.50;38.40;;;;;;5086448;28;20043;-66
2022/03/18 11:40:59;;;;;;;12.65;6.63;;;25.90;39.40;;;;;;5094251;28;20041;-65
2022/03/18 11:43:50;;;;;;;13.38;6.00;;;24.50;38.70;;;;;;5085421;28;20037;-66
2022/03/18 11:46:16;;;;;;;12.73;6.25;;;23.60;40.30;;;;;;5095950;28;20382;-65
2022/03/18 11:48:52;;;;;;;15.23;6.47;;;22.10;42.80;;;;;;5091297;28;20031;-65
2022/03/18 11:51:25;;;;;;;15.95;6.88;;;22.30;44.00;;;;;;5097541;28;20036;-66
2022/03/18 11:53:52;;;;;;;13.73;6.47;;;22.90;43.80;;;;;;5085699;28;20028;-65
2022/03/18 11:56:20;;;;;;;16.25;7.25;;;21.50;45.10;;;;;;5090339;28;20100;-65
2022/03/18 11:58:47;;;;;;;15.02;7.18;;;21.10;47.10;;;;;;5104879;28;20017;-65
2022/03/18 12:01:42;;;;;;;16.52;6.90;;;20.30;49.90;;;;;;5090431;28;20451;-65
2022/03/18 12:04:08;;;;;;;19.63;7.50;;;19.50;50.40;;;;;;5080435;28;20025;-65
2022/03/18 12:07:12;;;;;;;15.40;7.50;;;18.70;54.30;;;;;;5089891;28;20062;-65
2022/03/18 12:09:56;;;;;;;16.70;8.02;;;18.00;63.00;;;;;;5090583;28;20035;-64
2022/03/18 12:12:48;;;;;;;17.67;7.22;;;17.40;69.70;;;;;;5083826;28;20051;-65
2022/03/18 12:15:18;;;;;;;14.60;6.55;;;17.10;83.60;;;;;;5086688;28;20036;-65
2022/03/18 12:17:49;;;;;;;14.45;6.68;;;16.80;84.20;;;;;;5090478;28;20496;-65
2022/03/18 12:20:19;;;;;;;15.57;7.10;;;18.00;84.90;;;;;;5090450;28;20398;-67
2022/03/18 12:22:45;;;;;;;12.73;4.95;;;19.70;62.30;;;;;;5091241;28;20142;-67
2022/03/18 12:25:11;;;;;;;13.05;4.63;;;19.10;52.60;;;;;;5093634;28;20024;-68
2022/03/18 12:27:39;;;;;;;14.82;4.22;;;19.10;57.30;;;;;;5093580;28;20474;-67
2022/03/18 12:30:14;;;;;;;11.60;4.80;;;18.50;57.60;;;;;;5096191;28;20484;-65
2022/03/18 12:32:47;;;;;;;17.83;6.10;;;18.00;62.40;;;;;;5089932;28;20572;-67
2022/03/18 12:35:12;;;;;;;12.77;4.30;;;17.80;64.30;;;;;;5099250;28;20024;-66
2022/03/18 12:37:40;;;;;;;12.82;4.32;;;18.60;60.20;;;;;;5099786;28;20078;-65
2022/03/18 12:40:11;;;;;;;11.63;4.22;;;19.40;55.50;;;;;;5116059;28;20051;-65
2022/03/18 12:42:48;;;;;;;13.20;3.15;;;21.10;51.20;;;;;;5099809;28;20087;-65
2022/03/18 12:45:29;;;;;;;10.63;3.40;;;22.10;46.40;;;;;;5083896;28;20036;-65
2022/03/18 12:48:00;;;;;;;10.25;3.63;;;22.40;43.40;;;;;;5085574;28;20044;-65
2022/03/18 12:50:32;;;;;;;12.07;5.00;;;21.00;46.10;;;;;;5084944;28;20048;-65
2022/03/18 12:52:59;;;;;;;13.98;4.80;;;20.00;49.50;;;;;;5087463;28;20023;-65
2022/03/18 12:55:25;;;;;;;14.23;4.80;;;20.00;51.30;;;;;;5096341;28;20028;-65
2022/03/18 12:57:51;;;;;;;14.57;4.32;;;20.20;51.50;;;;;;5099861;28;20066;-65
2022/03/18 13:00:18;;;;;;;10.10;4.00;;;20.40;50.50;;;;;;5102951;28;20024;-65